Time;durP1;ratioP1;P1;durP2;ratioP2;P2;SDS_P1;SDS_P2;PMS_P1;PMS_P2;Temp;Humidity;BMP_temperature;BMP_pressure;BME280_temperature;BME280_humidity;BME280_pressure;Samples;Min_cycle;Max_cycle;Signal;HPM_P1;HPM_P2
2024/02/20 00:01:18;;;;;;;8.03;4.40;;;11.50;99.90;;;;;;4962885;28;20423;-32
2024/02/20 00:03:44;;;;;;;9.53;4.07;;;11.50;99.90;;;;;;4945319;28;21179;-32
2024/02/20 00:06:10;;;;;;;8.17;3.73;;;11.50;99.90;;;;;;4945128;28;20518;-33
2024/02/20 00:08:39;;;;;;;8.50;3.53;;;11.50;99.90;;;;;;4945059;28;21278;-35
2024/02/20 00:11:05;;;;;;;12.13;4.20;;;11.50;99.90;;;;;;4962993;28;20913;-33
2024/02/20 00:13:31;;;;;;;16.37;4.30;;;11.50;99.90;;;;;;4963092;28;20533;-35
2024/02/20 00:16:00;;;;;;;11.47;3.93;;;11.50;99.90;;;;;;4928998;28;20521;-28
2024/02/20 00:18:26;;;;;;;9.37;4.20;;;11.50;99.90;;;;;;4944846;28;20505;-32
2024/02/20 00:20:52;;;;;;;16.17;4.37;;;11.50;99.90;;;;;;4962157;28;20450;-31
2024/02/20 00:23:18;;;;;;;7.20;4.13;;;11.50;99.90;;;;;;4960977;28;20434;-30
2024/02/20 00:25:45;;;;;;;14.03;3.90;;;11.50;99.90;;;;;;4961976;28;20418;-29
2024/02/20 00:28:13;;;;;;;10.27;4.00;;;11.40;99.90;;;;;;4963117;28;20417;-35
2024/02/20 00:30:39;;;;;;;6.07;3.07;;;11.40;99.90;;;;;;4962797;28;20831;-33
2024/02/20 00:33:06;;;;;;;12.37;3.90;;;11.40;99.90;;;;;;4963061;28;20438;-34
2024/02/20 00:35:34;;;;;;;10.63;5.33;;;11.40;99.90;;;;;;4961018;28;20418;-30
2024/02/20 00:38:00;;;;;;;14.77;4.20;;;11.40;99.90;;;;;;4962533;28;20601;-31
2024/02/20 00:40:26;;;;;;;9.60;3.17;;;11.40;99.90;;;;;;4961556;28;20775;-35
2024/02/20 00:42:52;;;;;;;10.03;3.97;;;11.40;99.90;;;;;;4962791;28;20451;-34
2024/02/20 00:45:18;;;;;;;9.07;4.10;;;11.40;99.90;;;;;;4962847;28;20414;-29
2024/02/20 00:47:46;;;;;;;14.97;3.90;;;11.40;99.90;;;;;;4945399;28;20434;-35
2024/02/20 00:50:14;;;;;;;13.43;3.73;;;11.40;99.90;;;;;;4961174;28;20454;-35
2024/02/20 00:52:40;;;;;;;10.63;3.13;;;11.40;99.90;;;;;;4945699;28;20609;-33
2024/02/20 00:55:07;;;;;;;8.57;3.23;;;11.40;99.90;;;;;;4962319;28;21303;-37
2024/02/20 00:57:33;;;;;;;9.60;3.73;;;11.40;99.90;;;;;;4960858;28;20484;-33
2024/02/20 01:00:00;;;;;;;10.23;3.90;;;11.40;99.90;;;;;;4960305;28;20415;-31
2024/02/20 01:02:26;;;;;;;15.60;3.90;;;11.40;99.90;;;;;;4944389;28;20556;-34
2024/02/20 01:04:53;;;;;;;9.20;3.70;;;11.40;99.90;;;;;;4961646;28;20454;-31
2024/02/20 01:07:21;;;;;;;8.30;3.53;;;11.30;99.90;;;;;;4961857;28;20465;-35
2024/02/20 01:09:48;;;;;;;12.77;3.90;;;11.30;99.90;;;;;;4960249;28;21107;-32
2024/02/20 01:12:13;;;;;;;12.40;3.97;;;11.30;99.90;;;;;;4960081;28;20419;-34
2024/02/20 01:14:42;;;;;;;7.10;3.43;;;11.30;99.90;;;;;;4944513;28;20470;-33
2024/02/20 01:17:12;;;;;;;7.00;3.27;;;11.30;99.90;;;;;;4944156;28;20474;-33
2024/02/20 01:19:39;;;;;;;10.40;4.10;;;11.30;99.90;;;;;;4961896;28;21196;-33
2024/02/20 01:22:06;;;;;;;6.90;3.20;;;11.30;99.90;;;;;;4943960;28;20457;-33
2024/02/20 01:24:31;;;;;;;14.13;4.03;;;11.30;99.90;;;;;;4944202;28;20835;-30
2024/02/20 01:26:58;;;;;;;13.60;4.10;;;11.30;99.90;;;;;;4959962;28;20414;-34
2024/02/20 01:29:24;;;;;;;14.20;4.40;;;11.30;99.90;;;;;;4961962;28;20289;-32
2024/02/20 01:31:56;;;;;;;9.00;3.97;;;11.30;99.90;;;;;;4959267;28;20425;-30
2024/02/20 01:34:22;;;;;;;9.27;3.83;;;11.30;99.90;;;;;;4961568;28;20509;-37
2024/02/20 01:36:52;;;;;;;12.57;4.30;;;11.30;99.90;;;;;;4959015;28;20427;-32
2024/02/20 01:39:18;;;;;;;10.10;4.07;;;11.30;99.90;;;;;;4961373;28;20975;-31
2024/02/20 01:41:44;;;;;;;10.07;3.37;;;11.30;99.90;;;;;;4959378;28;20508;-30
2024/02/20 01:44:15;;;;;;;9.43;3.07;;;11.30;99.90;;;;;;4960898;28;20442;-35
2024/02/20 01:46:42;;;;;;;9.43;3.97;;;11.30;99.90;;;;;;4943045;28;20431;-33
2024/02/20 01:49:08;;;;;;;7.70;3.90;;;11.30;99.90;;;;;;4961178;28;20518;-33
2024/02/20 01:51:36;;;;;;;11.80;4.03;;;11.30;99.90;;;;;;4960558;28;20422;-31
2024/02/20 01:54:06;;;;;;;13.17;5.20;;;11.30;99.90;;;;;;4959389;28;20446;-33
2024/02/20 01:56:35;;;;;;;8.67;3.63;;;11.20;99.90;;;;;;4958835;28;20426;-34
2024/02/20 01:59:02;;;;;;;9.60;4.00;;;11.20;99.90;;;;;;4959222;28;20569;-32
2024/02/20 02:01:32;;;;;;;15.17;4.10;;;11.20;99.90;;;;;;4943885;28;21005;-34
2024/02/20 02:03:59;;;;;;;9.83;3.80;;;11.20;99.90;;;;;;4943159;28;20992;-32
2024/02/20 02:06:36;;;;;;;11.10;3.53;;;11.20;99.90;;;;;;4960675;28;20410;-29
2024/02/20 02:09:02;;;;;;;9.63;4.10;;;11.20;99.90;;;;;;4960920;28;20541;-35
2024/02/20 02:11:31;;;;;;;9.20;3.37;;;11.20;99.90;;;;;;4960639;28;20429;-34
2024/02/20 02:13:59;;;;;;;9.37;3.47;;;11.20;99.90;;;;;;4960833;28;20969;-31
2024/02/20 02:16:25;;;;;;;9.30;3.40;;;11.20;99.90;;;;;;4942662;28;20433;-33
2024/02/20 02:18:51;;;;;;;12.30;3.70;;;11.20;99.90;;;;;;4960593;28;20978;-33
2024/02/20 02:21:20;;;;;;;11.67;4.70;;;11.10;99.90;;;;;;4959268;28;20435;-28
2024/02/20 02:23:48;;;;;;;5.97;3.20;;;11.10;99.90;;;;;;4961637;28;20442;-32
2024/02/20 02:26:17;;;;;;;7.03;3.40;;;11.10;99.90;;;;;;4961110;28;20422;-34
2024/02/20 02:28:47;;;;;;;7.57;3.57;;;11.10;99.90;;;;;;4943929;28;20513;-32
2024/02/20 02:31:16;;;;;;;11.33;3.37;;;11.10;99.90;;;;;;4943062;28;20427;-32
2024/02/20 02:33:48;;;;;;;10.50;4.00;;;11.10;99.90;;;;;;4959331;28;20917;-33
2024/02/20 02:36:17;;;;;;;7.60;3.27;;;11.10;99.90;;;;;;4943220;28;20440;-30
2024/02/20 02:38:43;;;;;;;8.87;3.60;;;11.10;99.90;;;;;;4959853;28;20477;-29
2024/02/20 02:41:14;;;;;;;7.97;3.97;;;11.10;99.90;;;;;;4958729;28;20422;-34
2024/02/20 02:43:41;;;;;;;8.23;3.83;;;11.10;99.90;;;;;;4943024;28;20450;-30
2024/02/20 02:46:14;;;;;;;10.97;3.33;;;11.10;99.90;;;;;;4959563;28;20438;-32
2024/02/20 02:48:43;;;;;;;12.60;4.00;;;11.10;99.90;;;;;;4959992;28;20421;-33
2024/02/20 02:51:09;;;;;;;8.50;3.70;;;11.10;99.90;;;;;;4942571;28;20433;-34
2024/02/20 02:53:35;;;;;;;8.20;3.43;;;11.10;99.90;;;;;;4960623;28;20465;-35
2024/02/20 02:56:07;;;;;;;9.30;4.07;;;11.10;99.90;;;;;;4942739;28;20442;-32
2024/02/20 02:58:33;;;;;;;10.97;6.43;;;11.10;99.90;;;;;;4942820;28;20943;-33
2024/02/20 03:00:59;;;;;;;7.23;3.27;;;11.10;99.90;;;;;;4942678;28;20439;-31
2024/02/20 03:03:27;;;;;;;14.77;3.90;;;11.10;99.90;;;;;;4959777;28;20462;-32
2024/02/20 03:05:53;;;;;;;7.07;3.73;;;11.00;99.90;;;;;;4960079;28;20446;-31
2024/02/20 03:08:21;;;;;;;12.53;3.37;;;11.00;99.90;;;;;;4958386;28;20503;-33
2024/02/20 03:10:48;;;;;;;7.77;3.43;;;11.00;99.90;;;;;;4960385;28;20998;-33
2024/02/20 03:13:16;;;;;;;10.80;3.53;;;11.00;99.90;;;;;;4959842;28;20461;-35
2024/02/20 03:15:45;;;;;;;10.63;3.37;;;11.00;99.90;;;;;;4959386;28;20979;-33
2024/02/20 03:18:11;;;;;;;6.93;3.40;;;11.00;99.90;;;;;;4959843;28;20544;-32
2024/02/20 03:20:37;;;;;;;9.60;3.33;;;11.00;99.90;;;;;;4958623;28;20411;-35
2024/02/20 03:23:06;;;;;;;6.90;3.20;;;11.00;99.90;;;;;;4960349;28;20430;-33
2024/02/20 03:25:35;;;;;;;8.43;3.70;;;11.00;99.90;;;;;;4960671;28;20447;-30
2024/02/20 03:28:00;;;;;;;8.37;3.40;;;11.00;99.90;;;;;;4961258;28;20998;-32
2024/02/20 03:30:29;;;;;;;8.30;4.10;;;11.00;99.90;;;;;;4964021;28;20415;-31
2024/02/20 03:32:57;;;;;;;5.43;3.30;;;11.00;99.90;;;;;;4963228;28;20461;-29
2024/02/20 03:35:23;;;;;;;10.07;4.60;;;11.00;99.90;;;;;;4962328;28;20518;-31
2024/02/20 03:37:49;;;;;;;7.90;3.90;;;11.00;99.90;;;;;;4963281;28;21232;-34
2024/02/20 03:40:19;;;;;;;8.20;3.70;;;11.00;99.90;;;;;;4964086;28;20416;-29
2024/02/20 03:42:50;;;;;;;11.27;3.37;;;10.90;99.90;;;;;;4962110;28;20446;-31
2024/02/20 03:45:16;;;;;;;10.50;3.80;;;11.00;99.90;;;;;;4961882;28;20462;-34
2024/02/20 03:47:44;;;;;;;8.53;3.47;;;10.90;99.90;;;;;;4963111;28;20453;-33
2024/02/20 03:50:11;;;;;;;4.20;3.60;;;10.90;99.90;;;;;;4963621;28;20426;-29
2024/02/20 03:52:39;;;;;;;9.87;4.13;;;10.90;99.90;;;;;;4945919;28;20521;-28
2024/02/20 03:55:07;;;;;;;10.30;3.50;;;10.90;99.90;;;;;;4964384;28;20465;-33
2024/02/20 03:57:36;;;;;;;6.60;3.60;;;10.90;99.90;;;;;;4962126;28;20476;-35
2024/02/20 04:00:11;;;;;;;10.73;4.30;;;10.90;99.90;;;;;;4946744;28;20430;-30
2024/02/20 04:02:40;;;;;;;8.17;3.80;;;10.90;99.90;;;;;;4974614;22;20956;-71
2024/02/20 04:05:13;;;;;;;10.63;3.63;;;10.90;99.90;;;;;;5000762;28;21327;-71
2024/02/20 04:07:45;;;;;;;11.77;4.00;;;10.90;99.90;;;;;;4994017;28;20455;-71
2024/02/20 04:10:17;;;;;;;6.80;3.90;;;10.80;99.90;;;;;;4999218;28;20539;-74
2024/02/20 04:12:45;;;;;;;7.63;3.40;;;10.90;99.90;;;;;;4997387;28;20467;-72
2024/02/20 04:15:16;;;;;;;5.87;3.07;;;10.90;99.90;;;;;;5013466;28;21297;-71
2024/02/20 04:17:43;;;;;;;8.83;3.27;;;10.90;99.90;;;;;;5002106;28;20515;-73
2024/02/20 04:20:14;;;;;;;7.13;3.50;;;10.80;99.90;;;;;;4996034;28;20428;-72
2024/02/20 04:22:41;;;;;;;7.00;3.80;;;10.90;99.90;;;;;;4970024;28;20526;-71
2024/02/20 04:25:09;;;;;;;6.43;3.90;;;10.90;99.90;;;;;;4987444;28;20901;-73
2024/02/20 04:27:38;;;;;;;9.63;3.80;;;10.90;99.90;;;;;;5017232;28;20444;-73
2024/02/20 04:30:06;;;;;;;8.77;3.73;;;10.80;99.90;;;;;;5018410;28;21083;-73
2024/02/20 04:32:35;;;;;;;5.87;3.33;;;10.80;99.90;;;;;;5015640;28;21103;-72
2024/02/20 04:35:01;;;;;;;9.30;3.67;;;10.80;99.90;;;;;;5001863;28;20432;-72
2024/02/20 04:37:27;;;;;;;9.17;4.07;;;10.80;99.90;;;;;;4980814;28;20507;-73
2024/02/20 04:39:58;;;;;;;9.27;3.93;;;10.80;99.90;;;;;;5018434;28;20436;-73
2024/02/20 04:42:26;;;;;;;9.17;3.20;;;10.80;99.90;;;;;;5000903;28;20444;-73
2024/02/20 04:44:52;;;;;;;7.83;3.87;;;10.80;99.90;;;;;;4994304;28;20427;-71
2024/02/20 04:47:22;;;;;;;7.37;3.63;;;10.80;99.90;;;;;;5002639;28;20444;-71
2024/02/20 04:49:47;;;;;;;7.70;3.40;;;10.80;99.90;;;;;;4984853;28;20566;-72
2024/02/20 04:52:16;;;;;;;7.07;3.73;;;10.80;99.90;;;;;;5002012;28;20481;-73
2024/02/20 04:54:42;;;;;;;7.60;3.50;;;10.80;99.90;;;;;;4971794;28;20459;-72
2024/02/20 04:57:11;;;;;;;9.40;3.10;;;10.80;99.90;;;;;;4985335;28;20504;-72
2024/02/20 04:59:36;;;;;;;8.37;4.10;;;10.80;99.90;;;;;;5017598;28;20435;-73
2024/02/20 05:02:07;;;;;;;7.10;3.43;;;10.80;99.90;;;;;;4978941;28;20492;-73
2024/02/20 05:04:35;;;;;;;7.33;3.73;;;10.80;99.90;;;;;;5013681;28;20434;-72
2024/02/20 05:07:04;;;;;;;8.37;3.30;;;10.80;99.90;;;;;;4972389;28;20440;-71
2024/02/20 05:09:30;;;;;;;6.60;3.47;;;10.80;99.90;;;;;;5017309;28;20478;-71
2024/02/20 05:11:59;;;;;;;7.63;3.93;;;10.70;99.90;;;;;;4979490;28;20518;-72
2024/02/20 05:14:26;;;;;;;9.97;3.47;;;10.70;99.90;;;;;;5001614;28;20446;-73
2024/02/20 05:16:52;;;;;;;6.33;3.30;;;10.70;99.90;;;;;;5000811;28;20431;-72
2024/02/20 05:19:18;;;;;;;8.97;3.20;;;10.70;99.90;;;;;;4997276;28;20455;-73
2024/02/20 05:21:46;;;;;;;6.03;3.17;;;10.70;99.90;;;;;;4982673;28;21254;-72
2024/02/20 05:24:12;;;;;;;6.43;3.70;;;10.70;99.90;;;;;;4995319;28;20470;-72
2024/02/20 05:26:43;;;;;;;8.30;3.33;;;10.70;99.90;;;;;;4995878;28;20521;-73
2024/02/20 05:29:13;;;;;;;7.80;3.90;;;10.70;99.90;;;;;;4996868;28;20436;-71
2024/02/20 05:31:40;;;;;;;9.37;4.07;;;10.70;99.90;;;;;;4980414;28;20453;-74
2024/02/20 05:34:07;;;;;;;10.90;2.90;;;10.70;99.90;;;;;;5020222;28;21119;-71
2024/02/20 05:36:33;;;;;;;9.63;3.57;;;10.70;99.90;;;;;;5002224;28;21388;-73
2024/02/20 05:39:00;;;;;;;8.63;3.90;;;10.70;99.90;;;;;;4968229;28;20473;-72
2024/02/20 05:41:29;;;;;;;9.27;3.40;;;10.70;99.90;;;;;;4993934;28;20435;-72
2024/02/20 05:44:00;;;;;;;9.10;4.23;;;10.70;99.90;;;;;;5005916;28;21436;-71
2024/02/20 05:46:34;;;;;;;5.90;3.40;;;10.70;99.90;;;;;;5002085;28;20455;-72
2024/02/20 05:49:06;;;;;;;7.87;4.17;;;10.60;99.90;;;;;;4969487;28;20562;-72
2024/02/20 05:51:34;;;;;;;5.63;3.67;;;10.60;99.90;;;;;;5001523;28;20424;-71
2024/02/20 05:54:00;;;;;;;7.57;3.90;;;10.60;99.90;;;;;;5000266;28;20443;-72
2024/02/20 05:56:30;;;;;;;6.37;3.10;;;10.60;99.90;;;;;;4998445;28;20511;-72
2024/02/20 05:58:57;;;;;;;8.23;4.67;;;10.60;99.90;;;;;;5032404;28;20472;-73
2024/02/20 06:01:25;;;;;;;10.27;3.90;;;10.60;99.90;;;;;;5015216;28;20603;-73
2024/02/20 06:03:53;;;;;;;10.70;3.53;;;10.60;99.90;;;;;;4985147;28;20486;-73
2024/02/20 06:06:20;;;;;;;5.87;3.23;;;10.60;99.90;;;;;;5025387;28;20439;-72
2024/02/20 06:08:47;;;;;;;12.00;3.93;;;10.60;99.90;;;;;;5002874;28;20212;-73
2024/02/20 06:11:14;;;;;;;5.57;3.43;;;10.60;99.90;;;;;;5002789;28;20446;-72
2024/02/20 06:13:41;;;;;;;8.30;4.20;;;10.60;99.90;;;;;;5002801;28;20447;-72
2024/02/20 06:16:08;;;;;;;8.30;4.20;;;10.60;99.90;;;;;;4986116;28;20431;-73
2024/02/20 06:18:34;;;;;;;10.97;3.87;;;10.60;99.90;;;;;;5001935;28;20471;-71
2024/02/20 06:21:01;;;;;;;6.83;4.20;;;10.60;99.90;;;;;;5002325;28;20435;-72
2024/02/20 06:23:56;;;;;;;11.10;3.80;;;10.60;99.90;;;;;;5020644;28;20471;-73
2024/02/20 06:26:22;;;;;;;9.03;4.30;;;10.60;99.90;;;;;;5003623;28;20412;-73
2024/02/20 06:28:56;;;;;;;6.47;3.97;;;10.60;99.90;;;;;;5021346;28;20474;-71
2024/02/20 06:31:22;;;;;;;6.60;4.00;;;10.50;99.90;;;;;;5003265;28;20458;-72
2024/02/20 06:33:48;;;;;;;6.30;3.70;;;10.50;99.90;;;;;;5020474;28;20492;-73
2024/02/20 06:36:14;;;;;;;7.93;3.60;;;10.50;99.90;;;;;;5002753;28;20530;-72
2024/02/20 06:38:45;;;;;;;9.67;4.40;;;10.50;99.90;;;;;;4969837;28;20546;-73
2024/02/20 06:41:12;;;;;;;7.67;4.33;;;10.50;99.90;;;;;;5002820;28;20432;-73
2024/02/20 06:43:39;;;;;;;11.03;3.70;;;10.50;99.90;;;;;;4987516;28;20893;-73
2024/02/20 06:46:07;;;;;;;6.07;3.30;;;10.50;99.90;;;;;;4970751;28;20797;-72
2024/02/20 06:48:35;;;;;;;7.97;3.97;;;10.50;99.90;;;;;;5021212;28;20439;-72
2024/02/20 06:51:03;;;;;;;11.03;4.33;;;10.50;99.90;;;;;;4999926;28;20488;-73
2024/02/20 06:53:28;;;;;;;6.43;3.63;;;10.50;99.90;;;;;;4999583;28;20975;-74
2024/02/20 06:55:57;;;;;;;7.57;4.00;;;10.50;99.90;;;;;;5016095;28;20477;-72
2024/02/20 06:58:25;;;;;;;9.70;4.10;;;10.50;99.90;;;;;;5029055;28;20507;-74
2024/02/20 07:00:54;;;;;;;6.70;4.00;;;10.50;99.90;;;;;;5020574;28;21051;-73
2024/02/20 07:03:20;;;;;;;7.73;4.13;;;10.50;99.90;;;;;;5022380;28;20459;-73
2024/02/20 07:05:49;;;;;;;9.80;4.70;;;10.50;99.90;;;;;;5007451;28;21018;-74
2024/02/20 07:08:17;;;;;;;10.23;5.17;;;10.50;99.90;;;;;;5007282;28;20478;-74
2024/02/20 07:10:45;;;;;;;10.50;4.10;;;10.50;99.90;;;;;;4992489;28;20475;-73
2024/02/20 07:13:11;;;;;;;11.43;3.70;;;10.50;99.90;;;;;;5007253;28;20806;-74
2024/02/20 07:15:38;;;;;;;7.37;3.90;;;10.50;99.90;;;;;;4975210;28;20424;-72
2024/02/20 07:18:04;;;;;;;8.63;4.50;;;10.50;99.90;;;;;;5007255;28;20460;-76
2024/02/20 07:20:32;;;;;;;5.20;3.63;;;10.50;99.90;;;;;;4991274;28;20439;-74
2024/02/20 07:23:00;;;;;;;8.70;4.60;;;10.50;99.90;;;;;;5009491;28;20562;-77
2024/02/20 07:25:28;;;;;;;9.27;4.30;;;10.50;99.90;;;;;;4977175;28;20515;-75
2024/02/20 07:27:54;;;;;;;6.43;4.17;;;10.50;99.90;;;;;;5027934;28;20451;-73
2024/02/20 07:30:20;;;;;;;7.00;3.93;;;10.50;99.90;;;;;;5010944;28;21064;-73
2024/02/20 07:32:46;;;;;;;11.27;3.63;;;10.40;99.90;;;;;;5011094;28;20522;-73
2024/02/20 07:35:13;;;;;;;10.30;5.60;;;10.40;99.90;;;;;;4976997;28;20471;-72
2024/02/20 07:37:40;;;;;;;8.40;5.20;;;10.40;99.90;;;;;;4971884;28;20656;-74
2024/02/20 07:40:11;;;;;;;10.20;4.73;;;10.50;99.90;;;;;;4996263;28;20974;-74
2024/02/20 07:42:41;;;;;;;7.73;4.40;;;10.40;99.90;;;;;;4996378;28;20447;-74
2024/02/20 07:45:08;;;;;;;8.20;5.83;;;10.40;99.90;;;;;;5007596;28;20938;-74
2024/02/20 07:47:39;;;;;;;9.73;4.77;;;10.40;99.90;;;;;;4993688;28;20467;-74
2024/02/20 07:50:07;;;;;;;6.40;4.60;;;10.40;99.90;;;;;;5009658;28;20459;-76
2024/02/20 07:52:36;;;;;;;8.30;4.70;;;10.40;99.90;;;;;;5007342;28;20432;-71
2024/02/20 07:55:03;;;;;;;12.27;5.20;;;10.40;99.90;;;;;;5002917;28;20507;-73
2024/02/20 07:57:33;;;;;;;8.87;5.37;;;10.40;99.90;;;;;;5005761;28;20474;-72
2024/02/20 08:00:01;;;;;;;8.87;4.53;;;10.30;99.90;;;;;;4988418;28;20443;-73
2024/02/20 08:02:38;;;;;;;10.77;4.73;;;10.40;99.90;;;;;;5001476;28;20474;-71
2024/02/20 08:05:11;;;;;;;18.87;5.77;;;10.40;99.90;;;;;;5024031;28;21021;-72
2024/02/20 08:07:38;;;;;;;12.80;5.40;;;10.40;99.90;;;;;;5004755;28;20471;-71
2024/02/20 08:10:08;;;;;;;8.37;4.70;;;10.40;99.90;;;;;;5002050;28;20539;-71
2024/02/20 08:12:36;;;;;;;7.93;4.83;;;10.40;99.90;;;;;;5020901;28;20432;-71
2024/02/20 08:15:02;;;;;;;6.03;4.63;;;10.40;99.90;;;;;;4996895;28;20421;-70
2024/02/20 08:17:33;;;;;;;12.50;5.67;;;10.40;99.90;;;;;;5019803;28;20416;-72
2024/02/20 08:19:59;;;;;;;9.53;5.83;;;10.40;99.90;;;;;;5001172;28;20443;-73
2024/02/20 08:22:25;;;;;;;7.67;4.90;;;10.40;99.90;;;;;;4983450;28;20963;-74
2024/02/20 08:24:56;;;;;;;8.60;5.03;;;10.30;99.90;;;;;;4983603;28;20506;-72
2024/02/20 08:27:24;;;;;;;10.63;5.23;;;10.40;99.90;;;;;;4993644;28;20461;-72
2024/02/20 08:29:51;;;;;;;13.57;6.40;;;10.40;99.90;;;;;;4998802;28;21006;-72
2024/02/20 08:32:17;;;;;;;14.80;5.60;;;10.40;99.90;;;;;;4987377;28;20471;-72
2024/02/20 08:34:43;;;;;;;11.67;6.70;;;10.40;99.90;;;;;;4987665;28;20486;-72
2024/02/20 08:37:09;;;;;;;11.03;6.07;;;10.40;99.90;;;;;;4969077;28;20575;-72
2024/02/20 08:39:40;;;;;;;13.90;5.60;;;10.30;99.90;;;;;;4971031;28;20450;-73
2024/02/20 08:42:09;;;;;;;8.43;6.33;;;10.40;99.90;;;;;;4995561;28;20868;-73
2024/02/20 08:44:37;;;;;;;13.83;6.07;;;10.40;99.90;;;;;;5000812;28;20870;-72
2024/02/20 08:47:08;;;;;;;14.93;7.43;;;10.40;99.90;;;;;;4976255;28;20439;-73
2024/02/20 08:49:36;;;;;;;12.00;7.70;;;10.40;99.90;;;;;;5001590;28;20630;-72
2024/02/20 08:52:05;;;;;;;17.50;7.43;;;10.40;99.90;;;;;;5001085;28;20479;-73
2024/02/20 08:54:31;;;;;;;18.50;8.13;;;10.40;99.90;;;;;;5002077;28;20447;-72
2024/02/20 08:56:57;;;;;;;15.93;8.70;;;10.40;99.90;;;;;;4999685;28;20932;-72
2024/02/20 08:59:26;;;;;;;16.30;7.37;;;10.40;99.90;;;;;;4979354;28;20838;-73
2024/02/20 09:01:54;;;;;;;12.77;8.30;;;10.40;99.90;;;;;;5020522;28;20566;-73
2024/02/20 09:04:26;;;;;;;17.80;9.70;;;10.40;99.90;;;;;;5012368;28;20992;-74
2024/02/20 09:06:52;;;;;;;19.60;9.80;;;10.40;99.90;;;;;;5016576;28;20585;-72
2024/02/20 09:09:20;;;;;;;16.53;9.53;;;10.40;99.90;;;;;;4984049;28;20466;-72
2024/02/20 09:11:46;;;;;;;21.77;9.37;;;10.40;99.90;;;;;;4984617;28;20444;-73
2024/02/20 09:14:15;;;;;;;16.83;9.83;;;10.40;99.90;;;;;;5019291;28;20432;-73
2024/02/20 09:16:44;;;;;;;20.23;10.83;;;10.50;99.90;;;;;;5001873;28;20435;-73
2024/02/20 09:19:15;;;;;;;21.17;10.03;;;10.40;99.90;;;;;;4998481;28;20486;-73
2024/02/20 09:21:49;;;;;;;23.47;10.90;;;10.40;99.90;;;;;;4971301;28;20513;-72
2024/02/20 09:24:19;;;;;;;22.47;11.47;;;10.40;99.90;;;;;;4977218;28;21173;-72
2024/02/20 09:26:47;;;;;;;29.67;12.17;;;10.40;99.90;;;;;;4982675;28;20448;-72
2024/02/20 09:29:15;;;;;;;17.73;10.53;;;10.40;99.90;;;;;;5019449;28;20487;-73
2024/02/20 09:31:44;;;;;;;22.87;11.70;;;10.40;99.90;;;;;;5018110;28;20439;-73
2024/02/20 09:34:10;;;;;;;24.03;11.33;;;10.50;99.90;;;;;;5015071;28;20534;-73
2024/02/20 09:36:36;;;;;;;21.63;11.67;;;10.50;99.90;;;;;;4993415;28;20457;-72
2024/02/20 09:39:04;;;;;;;24.83;11.47;;;10.40;99.90;;;;;;4998842;28;20481;-73
2024/02/20 09:41:36;;;;;;;25.43;11.87;;;10.50;99.90;;;;;;4998799;28;20859;-73
2024/02/20 09:44:05;;;;;;;24.70;11.90;;;10.40;99.90;;;;;;5017106;28;20436;-73
2024/02/20 09:46:41;;;;;;;23.17;12.67;;;10.60;99.90;;;;;;4982965;28;21043;-73
2024/02/20 09:49:07;;;;;;;25.47;13.13;;;10.40;99.90;;;;;;4997157;28;20608;-73
2024/02/20 09:51:42;;;;;;;26.23;13.37;;;10.50;99.90;;;;;;5011894;28;20971;-73
2024/02/20 09:54:09;;;;;;;30.70;12.53;;;10.50;99.90;;;;;;4983382;28;20443;-73
2024/02/20 09:56:37;;;;;;;23.00;14.07;;;10.50;99.90;;;;;;5000449;28;20996;-73
2024/02/20 09:59:06;;;;;;;27.13;12.23;;;10.50;99.90;;;;;;4994951;28;20472;-73
2024/02/20 10:01:33;;;;;;;24.13;12.10;;;10.40;99.90;;;;;;4983528;28;20973;-73
2024/02/20 10:04:08;;;;;;;24.57;12.80;;;10.50;99.90;;;;;;5016306;28;20499;-73
2024/02/20 10:06:34;;;;;;;33.37;13.57;;;10.50;99.90;;;;;;4976451;28;20452;-73
2024/02/20 10:09:01;;;;;;;26.07;12.67;;;10.50;99.90;;;;;;4980050;28;20491;-72
2024/02/20 10:11:27;;;;;;;25.67;12.60;;;10.50;99.90;;;;;;4984157;28;20451;-73
2024/02/20 10:13:57;;;;;;;26.03;13.27;;;10.40;99.90;;;;;;5011885;28;20431;-72
2024/02/20 10:16:23;;;;;;;28.23;13.70;;;10.50;99.90;;;;;;4981098;28;20875;-73
2024/02/20 10:19:18;;;;;;;24.87;13.70;;;10.50;99.90;;;;;;4994515;28;20529;-73
2024/02/20 10:21:53;;;;;;;22.13;12.63;;;10.50;99.90;;;;;;4993516;28;20928;-73
2024/02/20 10:24:21;;;;;;;28.17;13.93;;;10.50;99.90;;;;;;4994689;28;20737;-73
2024/02/20 10:26:50;;;;;;;25.17;13.90;;;10.50;99.90;;;;;;4974189;28;20439;-73
2024/02/20 10:29:19;;;;;;;20.30;12.70;;;10.50;99.90;;;;;;4980151;28;20459;-74
2024/02/20 10:31:46;;;;;;;29.20;12.37;;;10.60;99.90;;;;;;4998344;28;20950;-73
2024/02/20 10:34:21;;;;;;;23.97;13.23;;;10.50;99.90;;;;;;4992698;28;21032;-73
2024/02/20 10:36:52;;;;;;;25.27;13.50;;;10.60;99.90;;;;;;5010751;28;20444;-73
2024/02/20 10:39:22;;;;;;;25.03;13.87;;;10.50;99.90;;;;;;4990660;28;21012;-73
2024/02/20 10:41:50;;;;;;;25.30;14.93;;;10.60;99.90;;;;;;5000216;28;20427;-72
2024/02/20 10:44:17;;;;;;;28.00;14.77;;;10.60;99.90;;;;;;5018974;28;20593;-73
2024/02/20 10:46:48;;;;;;;27.20;13.90;;;10.60;99.90;;;;;;5014804;28;20459;-74
2024/02/20 10:49:37;;;;;;;25.73;14.57;;;10.60;99.90;;;;;;4999980;28;21025;-74
2024/02/20 10:52:04;;;;;;;30.33;15.47;;;10.60;99.90;;;;;;4983900;28;20436;-73
2024/02/20 10:54:34;;;;;;;37.73;16.03;;;10.60;99.90;;;;;;4985501;28;20451;-72
2024/02/20 10:57:08;;;;;;;27.27;14.57;;;10.60;99.90;;;;;;5001726;28;20514;-73
2024/02/20 10:59:35;;;;;;;25.40;15.70;;;10.60;99.90;;;;;;4983626;28;20424;-72
2024/02/20 11:02:08;;;;;;;26.93;15.00;;;10.60;99.90;;;;;;4981870;28;20505;-72
2024/02/20 11:04:45;;;;;;;32.97;15.40;;;10.60;99.90;;;;;;5000492;28;20432;-72
2024/02/20 11:07:13;;;;;;;33.90;14.67;;;10.60;99.90;;;;;;4985015;28;20439;-72
2024/02/20 11:09:39;;;;;;;28.67;15.40;;;10.60;99.90;;;;;;4983469;28;20415;-72
2024/02/20 11:12:09;;;;;;;28.97;15.03;;;10.60;99.90;;;;;;4999393;28;20440;-72
2024/02/20 11:14:35;;;;;;;31.03;15.20;;;10.70;99.90;;;;;;5001960;28;20924;-72
2024/02/20 11:17:11;;;;;;;30.20;17.57;;;10.70;99.90;;;;;;4983843;28;20500;-72
2024/02/20 11:19:38;;;;;;;25.03;14.40;;;10.60;99.90;;;;;;5000297;28;20438;-72
2024/02/20 11:22:10;;;;;;;33.03;15.93;;;10.70;99.90;;;;;;4998739;28;20518;-74
2024/02/20 11:24:39;;;;;;;26.80;14.50;;;10.70;99.90;;;;;;4997440;28;21016;-74
2024/02/20 11:27:06;;;;;;;31.77;16.33;;;10.70;99.90;;;;;;5010836;28;20436;-73
2024/02/20 11:29:34;;;;;;;27.07;14.20;;;10.70;99.90;;;;;;4980495;28;20461;-74
2024/02/20 11:32:10;;;;;;;31.40;15.90;;;10.70;99.90;;;;;;5016406;28;20527;-73
2024/02/20 11:34:36;;;;;;;29.10;16.00;;;10.70;99.90;;;;;;4990412;28;20483;-73
2024/02/20 11:37:09;;;;;;;34.00;14.87;;;10.70;99.90;;;;;;4994174;28;20437;-73
2024/02/20 11:39:45;;;;;;;24.33;15.00;;;10.70;99.90;;;;;;5015270;28;20444;-73
2024/02/20 11:42:12;;;;;;;31.37;15.50;;;10.70;99.90;;;;;;4965326;28;20427;-73
2024/02/20 11:44:41;;;;;;;27.40;14.60;;;10.70;99.90;;;;;;4991594;28;20881;-73
2024/02/20 11:47:07;;;;;;;31.60;14.97;;;10.70;99.90;;;;;;5012011;28;20415;-73
2024/02/20 11:49:36;;;;;;;38.53;16.40;;;10.70;99.90;;;;;;4997174;28;20427;-74
2024/02/20 11:52:07;;;;;;;27.03;16.40;;;10.70;99.90;;;;;;4969135;28;20556;-73
2024/02/20 11:54:33;;;;;;;31.03;16.20;;;10.80;99.90;;;;;;4985888;28;20443;-73
2024/02/20 11:57:02;;;;;;;32.50;15.10;;;10.80;99.90;;;;;;4981353;28;20520;-73
2024/02/20 11:59:29;;;;;;;23.10;14.40;;;10.80;99.90;;;;;;5002285;28;20473;-73
2024/02/20 12:01:55;;;;;;;33.53;15.63;;;10.80;99.90;;;;;;4987997;28;20455;-73
2024/02/20 12:04:28;;;;;;;28.77;14.20;;;10.80;99.90;;;;;;4981397;28;20882;-74
2024/02/20 12:07:06;;;;;;;29.53;14.50;;;10.80;99.90;;;;;;4992455;28;20970;-74
2024/02/20 12:09:34;;;;;;;26.67;12.77;;;10.80;99.90;;;;;;4988519;28;20489;-75
2024/02/20 12:12:00;;;;;;;27.70;14.80;;;10.80;99.90;;;;;;4993698;28;20866;-73
2024/02/20 12:14:29;;;;;;;29.83;13.80;;;10.80;99.90;;;;;;5003813;28;20444;-75
2024/02/20 12:17:02;;;;;;;26.60;15.50;;;10.80;99.90;;;;;;5001789;28;20424;-72
2024/02/20 12:19:28;;;;;;;29.60;12.20;;;10.80;99.90;;;;;;4978353;28;20471;-75
2024/02/20 12:22:03;;;;;;;20.47;11.87;;;10.80;99.90;;;;;;4980086;28;20423;-75
2024/02/20 12:24:29;;;;;;;34.27;14.00;;;10.80;99.90;;;;;;5002737;28;20440;-72
2024/02/20 12:27:00;;;;;;;24.63;13.27;;;10.80;99.90;;;;;;4979547;28;20774;-72
2024/02/20 12:29:28;;;;;;;32.50;12.87;;;10.90;99.90;;;;;;4979749;28;20475;-74
2024/02/20 12:31:54;;;;;;;29.00;14.07;;;10.90;99.90;;;;;;4997347;28;20912;-74
2024/02/20 12:34:20;;;;;;;26.63;12.63;;;10.80;99.90;;;;;;4984914;28;20665;-75
2024/02/20 12:36:48;;;;;;;28.77;12.30;;;10.90;99.90;;;;;;5018505;28;20945;-75
2024/02/20 12:39:16;;;;;;;26.77;13.00;;;10.90;99.90;;;;;;5015152;28;20601;-75
2024/02/20 12:41:42;;;;;;;28.33;13.20;;;10.90;99.90;;;;;;4994481;28;20452;-75
2024/02/20 12:44:08;;;;;;;23.30;10.80;;;10.90;99.90;;;;;;5000466;28;20764;-74